createdAt,value
2019-01-31T00:01:45.634Z,10.40
2019-01-31T00:04:51.395Z,10.10
2019-01-31T00:07:51.014Z,9.80
2019-01-31T00:10:41.544Z,10.17
2019-01-31T00:13:47.966Z,10.23
2019-01-31T00:17:07.281Z,9.37
2019-01-31T00:20:05.661Z,9.97
2019-01-31T00:23:11.838Z,8.50
2019-01-31T00:26:30.111Z,9.70
2019-01-31T00:29:11.712Z,8.33
2019-01-31T00:32:02.533Z,8.07
2019-01-31T00:34:50.476Z,8.80
2019-01-31T00:37:45.440Z,9.70
2019-01-31T00:41:05.168Z,9.43
2019-01-31T00:44:13.603Z,9.20
2019-01-31T00:47:01.262Z,9.80
2019-01-31T00:50:16.747Z,11.10
2019-01-31T00:53:08.525Z,11.87
2019-01-31T00:56:17.714Z,12.17
2019-01-31T00:59:24.719Z,10.87
2019-01-31T01:02:40.235Z,12.37
2019-01-31T01:05:37.150Z,12.00
2019-01-31T01:08:49.389Z,11.73
2019-01-31T01:12:04.645Z,11.57
2019-01-31T01:15:26.579Z,11.97
2019-01-31T01:18:13.414Z,12.67
2019-01-31T01:21:08.477Z,14.10
2019-01-31T01:24:02.577Z,13.90
2019-01-31T01:27:21.299Z,12.73
2019-01-31T01:30:03.410Z,13.83
2019-01-31T01:32:59.474Z,14.30
2019-01-31T01:36:05.687Z,12.00
2019-01-31T01:39:18.845Z,13.27
2019-01-31T01:42:16.888Z,11.97
2019-01-31T01:45:19.989Z,11.73
2019-01-31T01:48:17.426Z,13.50
2019-01-31T01:51:28.439Z,10.87
2019-01-31T01:54:39.280Z,9.80
2019-01-31T01:57:58.440Z,10.00
2019-01-31T02:01:00.711Z,8.40
2019-01-31T02:03:54.501Z,7.80
2019-01-31T02:07:01.963Z,4.57
2019-01-31T02:10:09.514Z,7.23
2019-01-31T02:13:24.863Z,6.40
2019-01-31T02:16:31.007Z,5.70
2019-01-31T02:19:47.034Z,7.47
2019-01-31T02:22:45.963Z,6.20
2019-01-31T02:25:20.521Z,6.70
2019-01-31T02:28:40.365Z,5.43
2019-01-31T02:31:49.937Z,5.33
2019-01-31T02:34:59.474Z,5.37
2019-01-31T02:38:14.004Z,4.93
2019-01-31T02:41:16.781Z,6.03
2019-01-31T02:44:30.363Z,4.40
2019-01-31T02:47:20.309Z,5.90
2019-01-31T02:50:17.815Z,5.83
2019-01-31T02:53:36.269Z,5.53
2019-01-31T02:56:40.808Z,4.57
2019-01-31T02:59:37.976Z,4.70
2019-01-31T03:02:35.622Z,5.00
2019-01-31T03:05:46.242Z,4.80
2019-01-31T03:08:42.015Z,4.67
2019-01-31T03:11:38.089Z,4.90
2019-01-31T03:14:57.542Z,4.43
2019-01-31T03:18:17.049Z,4.63
2019-01-31T03:21:27.853Z,4.63
2019-01-31T03:24:34.813Z,4.07
2019-01-31T03:27:29.439Z,5.50
2019-01-31T03:30:42.292Z,4.80
2019-01-31T03:34:00.504Z,4.60
2019-01-31T03:36:53.485Z,4.77
2019-01-31T03:40:06.242Z,4.40
2019-01-31T03:43:04.925Z,4.93
2019-01-31T03:46:11.342Z,4.13
2019-01-31T03:49:01.458Z,5.67
2019-01-31T03:51:55.353Z,4.77
2019-01-31T03:54:56.290Z,4.00
2019-01-31T03:57:57.234Z,4.47
2019-01-31T04:01:09.367Z,4.17
2019-01-31T04:04:09.765Z,4.10
2019-01-31T04:06:39.537Z,5.00
2019-01-31T04:09:10.878Z,5.20
2019-01-31T04:11:40.216Z,6.07
2019-01-31T04:14:09.588Z,5.23
2019-01-31T04:16:38.945Z,5.10
2019-01-31T04:19:08.438Z,4.97
2019-01-31T04:21:37.897Z,4.60
2019-01-31T04:24:07.276Z,5.97
2019-01-31T04:26:36.654Z,5.23
2019-01-31T04:29:06.143Z,5.70
2019-01-31T04:31:35.544Z,6.90
2019-01-31T04:34:04.908Z,6.47
2019-01-31T04:36:34.269Z,6.53
2019-01-31T04:39:05.307Z,6.43
2019-01-31T04:41:34.619Z,6.43
2019-01-31T04:44:04.178Z,6.67
2019-01-31T04:46:33.515Z,6.77
2019-01-31T04:49:03.181Z,7.00
2019-01-31T04:51:32.560Z,6.80
2019-01-31T04:54:02.193Z,7.20
2019-01-31T04:56:31.530Z,7.77
2019-01-31T04:59:01.020Z,7.83
2019-01-31T05:01:30.702Z,7.53
2019-01-31T05:04:00.192Z,10.20
2019-01-31T05:06:29.510Z,8.27
2019-01-31T05:08:58.839Z,7.70
2019-01-31T05:11:28.230Z,8.60
2019-01-31T05:13:57.661Z,9.00
2019-01-31T05:16:27.108Z,11.33
2019-01-31T05:18:56.501Z,9.00
2019-01-31T05:21:25.926Z,8.40
2019-01-31T05:23:55.717Z,7.00
2019-01-31T05:26:25.097Z,8.00
2019-01-31T05:28:54.415Z,8.70
2019-01-31T05:31:23.841Z,9.30
2019-01-31T05:33:53.266Z,7.93
2019-01-31T05:36:22.631Z,7.67
2019-01-31T05:38:52.176Z,8.37
2019-01-31T05:41:21.672Z,8.53
2019-01-31T05:43:51.062Z,8.23
2019-01-31T05:46:20.585Z,7.53
2019-01-31T05:48:50.043Z,7.00
2019-01-31T05:51:19.636Z,7.80
2019-01-31T05:53:49.203Z,8.60
2019-01-31T05:56:18.595Z,7.43
2019-01-31T05:58:50.686Z,7.83
2019-01-31T06:01:20.156Z,6.87
2019-01-31T06:03:49.553Z,7.60
2019-01-31T06:06:19.053Z,8.40
2019-01-31T06:08:48.482Z,9.10
2019-01-31T06:11:17.943Z,8.27
2019-01-31T06:13:47.491Z,8.67
2019-01-31T06:16:17.104Z,8.73
2019-01-31T06:18:46.566Z,12.53
2019-01-31T06:21:16.031Z,10.80
2019-01-31T06:23:45.495Z,12.83
2019-01-31T06:26:15.082Z,9.43
2019-01-31T06:28:44.574Z,10.00
2019-01-31T06:31:14.098Z,10.40
2019-01-31T06:33:43.529Z,10.87
2019-01-31T06:36:13.142Z,9.37
2019-01-31T06:38:42.545Z,9.13
2019-01-31T06:41:18.250Z,8.80
2019-01-31T06:43:43.056Z,9.00
2019-01-31T06:46:12.471Z,13.00
2019-01-31T06:48:41.902Z,8.37
2019-01-31T06:51:11.478Z,7.90
2019-01-31T06:53:40.888Z,9.20
2019-01-31T06:56:10.348Z,8.90
2019-01-31T06:58:41.184Z,10.90
2019-01-31T07:01:10.954Z,10.97
2019-01-31T07:03:40.412Z,9.70
2019-01-31T07:06:09.862Z,10.47
2019-01-31T07:08:39.327Z,8.63
2019-01-31T07:11:08.873Z,10.00
2019-01-31T07:13:38.388Z,9.73
2019-01-31T07:16:08.255Z,9.10
2019-01-31T07:18:37.556Z,9.73
2019-01-31T07:21:06.993Z,8.93
2019-01-31T07:23:36.494Z,8.80
2019-01-31T07:26:06.096Z,9.70
2019-01-31T07:28:35.632Z,9.20
2019-01-31T07:31:05.563Z,9.77
2019-01-31T07:33:34.916Z,10.83
2019-01-31T07:36:04.535Z,12.70
2019-01-31T07:38:33.937Z,10.90
2019-01-31T07:41:03.513Z,12.70
2019-01-31T07:43:33.008Z,10.10
2019-01-31T07:46:02.578Z,11.10
2019-01-31T07:48:31.936Z,12.77
2019-01-31T07:51:01.542Z,10.67
2019-01-31T07:53:31.026Z,10.40
2019-01-31T07:56:00.512Z,11.20
2019-01-31T07:58:29.962Z,10.53
2019-01-31T08:00:59.542Z,11.30
2019-01-31T08:03:29.131Z,12.03
2019-01-31T08:05:58.639Z,13.03
2019-01-31T08:08:28.259Z,14.77
2019-01-31T08:10:57.713Z,12.40
2019-01-31T08:13:27.212Z,10.97
2019-01-31T08:15:56.696Z,12.57
2019-01-31T08:18:26.076Z,11.90
2019-01-31T08:20:55.591Z,11.53
2019-01-31T08:23:25.026Z,10.87
2019-01-31T08:25:54.358Z,10.73
2019-01-31T08:28:23.825Z,10.47
2019-01-31T08:30:53.305Z,12.17
2019-01-31T08:33:22.683Z,11.80
2019-01-31T08:35:52.123Z,11.43
2019-01-31T08:38:21.604Z,10.50
2019-01-31T08:40:50.989Z,9.90
2019-01-31T08:43:20.660Z,10.17
2019-01-31T08:45:56.385Z,9.57
2019-01-31T08:48:25.963Z,9.33
2019-01-31T08:50:55.560Z,11.20
2019-01-31T08:53:25.069Z,11.50
2019-01-31T08:55:54.571Z,13.07
2019-01-31T08:58:24.002Z,13.27
2019-01-31T09:00:53.603Z,10.53
2019-01-31T09:03:23.583Z,12.27
2019-01-31T09:05:53.289Z,12.47
2019-01-31T09:08:22.791Z,11.13
2019-01-31T09:10:52.259Z,12.63
2019-01-31T09:13:21.717Z,12.87
2019-01-31T09:15:51.211Z,10.40
2019-01-31T09:18:20.741Z,10.00
2019-01-31T09:21:05.930Z,9.03
2019-01-31T09:24:08.458Z,9.50
2019-01-31T09:27:31.537Z,7.93
2019-01-31T09:30:19.778Z,8.93
2019-01-31T09:33:21.754Z,9.80
2019-01-31T09:36:23.749Z,7.90
2019-01-31T09:39:29.221Z,8.90
2019-01-31T09:42:28.217Z,7.50
2019-01-31T09:45:19.592Z,10.93
2019-01-31T09:48:31.638Z,8.40
2019-01-31T09:51:30.931Z,9.17
2019-01-31T09:54:14.578Z,9.10
2019-01-31T09:57:22.414Z,9.63
2019-01-31T10:00:07.435Z,8.87
2019-01-31T10:03:34.625Z,9.10
2019-01-31T10:06:51.830Z,10.60
2019-01-31T10:09:43.195Z,8.20
2019-01-31T10:12:44.421Z,7.27
2019-01-31T10:16:00.929Z,7.13
2019-01-31T10:19:04.822Z,6.73
2019-01-31T10:22:18.881Z,9.40
2019-01-31T10:25:19.876Z,9.73
2019-01-31T10:28:28.572Z,7.80
2019-01-31T10:31:26.719Z,6.77
2019-01-31T10:34:23.921Z,6.13
2019-01-31T10:37:37.030Z,7.17
2019-01-31T10:40:19.855Z,6.93
2019-01-31T10:43:16.421Z,6.10
2019-01-31T10:45:53.885Z,7.20
2019-01-31T10:48:51.934Z,6.30
2019-01-31T10:52:01.366Z,5.60
2019-01-31T10:55:16.741Z,5.77
2019-01-31T10:58:08.713Z,6.73
2019-01-31T11:01:15.630Z,6.10
2019-01-31T11:04:28.718Z,7.20
2019-01-31T11:07:28.023Z,8.97
2019-01-31T11:10:37.304Z,5.43
2019-01-31T11:13:40.079Z,6.23
2019-01-31T11:16:46.567Z,5.30
2019-01-31T11:19:51.742Z,5.97
2019-01-31T11:22:48.608Z,5.20
2019-01-31T11:26:08.429Z,7.90
2019-01-31T11:29:27.963Z,6.33
2019-01-31T11:32:20.659Z,6.67
2019-01-31T11:35:22.686Z,5.50
2019-01-31T11:38:11.678Z,5.93
2019-01-31T11:41:28.142Z,6.43
2019-01-31T11:44:38.041Z,5.33
2019-01-31T11:47:20.231Z,6.23
2019-01-31T11:50:26.639Z,5.27
2019-01-31T11:53:11.081Z,5.87
2019-01-31T11:56:15.110Z,5.43
2019-01-31T11:59:23.015Z,5.90
2019-01-31T12:01:52.421Z,5.97
2019-01-31T12:04:22.130Z,6.30
2019-01-31T12:06:51.742Z,8.90
2019-01-31T12:09:22.384Z,7.03
2019-01-31T12:11:52.245Z,5.47
2019-01-31T12:14:21.752Z,3.80
2019-01-31T12:16:51.223Z,5.27
2019-01-31T12:19:20.894Z,4.77
2019-01-31T12:21:50.397Z,3.93
2019-01-31T12:24:19.792Z,4.00
2019-01-31T12:26:49.220Z,4.53
2019-01-31T12:29:19.676Z,3.30
2019-01-31T12:31:49.135Z,3.83
2019-01-31T12:34:18.617Z,3.83
2019-01-31T12:36:48.048Z,2.97
2019-01-31T12:39:17.586Z,5.10
2019-01-31T12:41:46.961Z,4.03
2019-01-31T12:44:16.461Z,3.97
2019-01-31T12:46:46.081Z,3.73
2019-01-31T12:49:16.119Z,5.00
2019-01-31T15:17:33.980Z,6.33
2019-01-31T15:28:41.286Z,7.37
2019-01-31T15:31:10.898Z,5.73
2019-01-31T15:33:40.383Z,4.77
2019-01-31T15:36:09.956Z,5.13
2019-01-31T15:41:15.441Z,5.03
2019-01-31T15:43:44.914Z,5.50
2019-01-31T15:46:14.402Z,4.63
2019-01-31T15:48:43.928Z,5.30
2019-01-31T15:51:13.411Z,4.70
2019-01-31T15:53:42.833Z,5.60
2019-01-31T15:56:12.722Z,5.50
2019-01-31T15:58:42.747Z,4.70
2019-01-31T16:01:14.592Z,4.07
2019-01-31T16:03:44.107Z,4.63
2019-01-31T16:06:13.694Z,4.97
2019-01-31T16:08:43.175Z,6.17
2019-01-31T16:11:12.676Z,5.50
2019-01-31T16:13:42.175Z,5.33
2019-01-31T16:16:11.768Z,4.20
2019-01-31T16:18:41.191Z,5.73
2019-01-31T16:21:10.699Z,5.77
2019-01-31T16:23:41.104Z,4.90
2019-01-31T16:26:10.892Z,6.00
2019-01-31T16:28:40.337Z,4.97
2019-01-31T16:31:09.803Z,4.80
2019-01-31T16:33:41.251Z,4.80
2019-01-31T16:36:10.744Z,4.87
2019-01-31T16:38:40.253Z,4.57
2019-01-31T16:41:10.034Z,5.90
2019-01-31T16:43:39.482Z,5.60
2019-01-31T16:46:12.342Z,4.80
2019-01-31T16:48:42.268Z,5.60
2019-01-31T16:51:11.842Z,4.53
2019-01-31T16:53:41.751Z,5.47
2019-01-31T16:56:11.353Z,5.50
2019-01-31T16:58:41.165Z,4.60
2019-01-31T17:01:10.762Z,4.77
2019-01-31T17:03:40.232Z,5.50
2019-01-31T17:06:10.701Z,5.40
2019-01-31T17:08:40.208Z,6.20
2019-01-31T17:11:09.826Z,5.50
2019-01-31T17:13:39.655Z,5.40
2019-01-31T17:21:35.583Z,6.53
2019-01-31T17:24:05.438Z,6.47
2019-01-31T17:26:36.161Z,6.70
2019-01-31T17:29:07.305Z,5.87
2019-01-31T17:31:36.801Z,5.57
2019-01-31T17:34:06.300Z,6.30
2019-01-31T17:36:35.934Z,5.30
2019-01-31T17:39:09.207Z,6.00
2019-01-31T17:41:38.753Z,8.20
2019-01-31T17:44:08.333Z,13.53
2019-01-31T17:46:39.376Z,5.30
2019-01-31T17:49:09.016Z,6.77
2019-01-31T17:51:38.981Z,6.17
2019-01-31T17:54:08.563Z,6.40
2019-01-31T17:56:38.132Z,6.07
2019-01-31T17:59:07.723Z,7.10
2019-01-31T18:01:37.230Z,8.80
2019-01-31T18:04:06.846Z,7.47
2019-01-31T18:06:38.478Z,7.07
2019-01-31T18:09:10.208Z,7.23
2019-01-31T18:11:39.763Z,9.60
2019-01-31T18:14:09.391Z,8.50
2019-01-31T18:16:39.125Z,7.53
2019-01-31T18:22:32.910Z,6.47
2019-01-31T18:25:02.384Z,7.73
2019-01-31T18:27:32.009Z,6.30
2019-01-31T18:30:02.568Z,7.40
2019-01-31T18:32:36.653Z,6.20
2019-01-31T18:35:09.304Z,8.50
2019-01-31T18:37:39.333Z,8.20
2019-01-31T18:40:13.017Z,7.27
2019-01-31T18:42:43.860Z,6.67
2019-01-31T18:45:16.701Z,6.07
2019-01-31T18:47:46.697Z,5.60
2019-01-31T18:50:20.009Z,6.43
2019-01-31T18:52:49.768Z,6.60
2019-01-31T18:55:20.221Z,7.13
2019-01-31T18:57:51.001Z,6.43
2019-01-31T19:00:32.459Z,7.17
2019-01-31T19:03:01.996Z,7.03
2019-01-31T19:05:31.840Z,7.17
2019-01-31T19:08:01.507Z,6.57
2019-01-31T19:14:14.355Z,5.77
2019-01-31T19:16:43.343Z,5.80
2019-01-31T19:19:13.027Z,6.30
2019-01-31T19:21:43.726Z,5.63
2019-01-31T19:24:13.412Z,5.80
2019-01-31T19:26:43.018Z,5.50
2019-01-31T19:29:12.572Z,7.27
2019-01-31T19:31:42.348Z,7.40
2019-01-31T19:34:12.148Z,5.90
2019-01-31T19:36:44.014Z,5.67
2019-01-31T19:39:22.862Z,6.40
2019-01-31T19:41:53.698Z,6.53
2019-01-31T19:44:24.743Z,6.47
2019-01-31T19:46:54.343Z,7.30
2019-01-31T19:49:25.341Z,6.70
2019-01-31T19:51:55.025Z,8.87
2019-01-31T19:54:24.739Z,6.83
2019-01-31T19:56:54.959Z,7.77
2019-01-31T19:59:25.912Z,6.97
2019-01-31T20:01:55.531Z,5.87
2019-01-31T20:04:25.270Z,7.37
2019-01-31T20:06:55.118Z,6.90
2019-01-31T20:09:29.286Z,7.57
2019-01-31T20:11:58.972Z,7.70
2019-01-31T20:14:28.751Z,7.43
2019-01-31T20:16:58.743Z,7.73
2019-01-31T20:19:28.396Z,9.03
2019-01-31T20:21:58.940Z,7.97
2019-01-31T20:24:28.714Z,8.50
2019-01-31T20:26:58.309Z,6.33
2019-01-31T20:29:28.147Z,8.20
2019-01-31T20:31:57.756Z,7.57
2019-01-31T20:34:29.876Z,7.70
2019-01-31T20:36:59.587Z,7.00
2019-01-31T20:39:35.597Z,7.47
2019-01-31T20:42:06.080Z,6.80
2019-01-31T20:44:38.259Z,7.33
2019-01-31T20:47:07.967Z,7.90
2019-01-31T20:49:39.661Z,6.43
2019-01-31T20:52:09.398Z,6.77
2019-01-31T20:54:40.927Z,6.27
2019-01-31T20:57:10.811Z,5.63
2019-01-31T20:59:41.550Z,6.60
2019-01-31T21:02:13.571Z,9.00
2019-01-31T21:04:43.561Z,6.60
2019-01-31T21:07:19.453Z,5.90
2019-01-31T21:09:49.763Z,6.87
2019-01-31T21:12:19.373Z,6.40
2019-01-31T21:14:53.934Z,6.30
2019-01-31T21:17:24.303Z,6.87
2019-01-31T21:19:54.563Z,7.40
2019-01-31T21:22:24.695Z,7.00
2019-01-31T21:24:54.680Z,29.70
2019-01-31T21:27:24.289Z,8.97
2019-01-31T21:29:54.009Z,6.00
2019-01-31T21:32:23.750Z,7.20
2019-01-31T21:34:53.343Z,7.60
2019-01-31T21:37:22.910Z,7.33
2019-01-31T21:39:52.493Z,9.03
2019-01-31T21:42:22.037Z,7.80
2019-01-31T21:44:52.022Z,7.33
2019-01-31T21:47:21.617Z,8.83
2019-01-31T21:49:51.217Z,6.33
2019-01-31T21:52:20.816Z,6.50
2019-01-31T21:54:50.804Z,5.97
2019-01-31T21:57:20.280Z,7.00
2019-01-31T21:59:50.451Z,4.37
2019-01-31T22:02:23.034Z,6.07
2019-01-31T22:04:52.549Z,6.13
2019-01-31T22:07:22.135Z,5.60
2019-01-31T22:09:51.703Z,4.73
2019-01-31T22:12:21.193Z,5.67
2019-01-31T22:14:50.665Z,5.00
2019-01-31T22:17:21.014Z,6.43
2019-01-31T22:19:50.606Z,5.67
2019-01-31T22:22:20.143Z,4.93
2019-01-31T22:24:49.706Z,4.70
2019-01-31T22:27:19.214Z,4.83
2019-01-31T22:29:50.712Z,4.17
2019-01-31T22:32:20.236Z,4.57
2019-01-31T22:34:49.766Z,4.40
2019-01-31T22:37:19.618Z,5.00
2019-01-31T22:39:49.137Z,4.90
2019-01-31T22:42:18.614Z,4.50
2019-01-31T22:44:47.995Z,5.20
2019-01-31T22:47:25.674Z,4.97
2019-01-31T22:49:49.943Z,4.10
2019-01-31T22:52:19.385Z,4.00
2019-01-31T22:54:48.824Z,3.57
2019-01-31T22:57:18.371Z,3.53
2019-01-31T22:59:47.844Z,4.53
2019-01-31T23:02:17.329Z,4.60
2019-01-31T23:04:46.802Z,3.93
2019-01-31T23:07:16.217Z,3.73
2019-01-31T23:09:46.740Z,3.20
2019-01-31T23:12:16.201Z,3.40
2019-01-31T23:14:45.777Z,3.60
2019-01-31T23:17:15.150Z,3.80
2019-01-31T23:19:44.582Z,3.17
2019-01-31T23:22:14.049Z,3.70
2019-01-31T23:24:43.644Z,3.40
2019-01-31T23:27:13.162Z,3.00
2019-01-31T23:29:42.745Z,3.30
2019-01-31T23:32:12.295Z,3.10
2019-01-31T23:34:41.696Z,2.53
2019-01-31T23:37:11.139Z,3.27
2019-01-31T23:39:40.487Z,2.97
2019-01-31T23:42:09.852Z,3.17
2019-01-31T23:44:40.848Z,2.47
2019-01-31T23:47:10.290Z,2.33
2019-01-31T23:49:39.641Z,2.60
2019-01-31T23:52:09.062Z,3.30
2019-01-31T23:54:38.498Z,3.20
2019-01-31T23:57:07.911Z,2.90
2019-01-31T23:59:39.105Z,2.93
